createdAt,value
2022-12-25T00:01:25.182Z,11.70
2022-12-25T00:03:53.004Z,11.27
2022-12-25T00:06:20.444Z,12.32
2022-12-25T00:08:47.614Z,12.93
2022-12-25T00:11:19.584Z,13.25
2022-12-25T00:13:48.089Z,12.18
2022-12-25T00:16:20.073Z,12.38
2022-12-25T00:18:48.404Z,14.70
2022-12-25T00:21:16.001Z,15.00
2022-12-25T00:23:44.109Z,12.75
2022-12-25T00:26:17.483Z,12.77
2022-12-25T00:28:45.070Z,16.73
2022-12-25T00:31:17.959Z,15.63
2022-12-25T00:33:48.009Z,16.67
2022-12-25T00:36:19.243Z,13.48
2022-12-25T00:38:47.215Z,19.23
2022-12-25T00:41:42.674Z,14.02
2022-12-25T00:44:13.700Z,12.40
2022-12-25T00:46:42.525Z,11.63
2022-12-25T00:49:11.020Z,13.75
2022-12-25T00:51:38.282Z,10.27
2022-12-25T00:54:05.345Z,17.55
2022-12-25T00:56:32.586Z,18.40
2022-12-25T00:58:59.589Z,14.50
2022-12-25T01:01:26.932Z,14.18
2022-12-25T01:03:53.861Z,14.77
2022-12-25T01:06:21.013Z,14.82
2022-12-25T01:09:06.412Z,13.85
2022-12-25T01:11:33.614Z,15.70
2022-12-25T01:14:00.867Z,16.15
2022-12-25T01:16:28.727Z,14.15
2022-12-25T01:18:56.337Z,16.35
2022-12-25T01:21:24.123Z,15.13
2022-12-25T01:23:53.615Z,12.02
2022-12-25T01:26:25.236Z,12.90
2022-12-25T01:28:53.061Z,12.95
2022-12-25T01:31:24.090Z,14.57
2022-12-25T01:33:52.077Z,12.50
2022-12-25T01:36:26.662Z,15.10
2022-12-25T01:38:54.927Z,17.10
2022-12-25T01:41:25.237Z,11.70
2022-12-25T01:44:18.063Z,13.20
2022-12-25T01:46:45.372Z,19.67
2022-12-25T01:49:23.636Z,16.63
2022-12-25T01:52:21.670Z,13.63
2022-12-25T01:54:58.138Z,14.02
2022-12-25T01:57:34.570Z,15.63
2022-12-25T02:00:05.095Z,15.10
2022-12-25T02:02:32.697Z,15.18
2022-12-25T02:05:38.781Z,16.40
2022-12-25T02:08:12.740Z,21.27
2022-12-25T02:10:40.089Z,16.40
2022-12-25T02:13:08.431Z,19.33
2022-12-25T02:16:13.416Z,21.15
2022-12-25T02:18:51.862Z,13.57
2022-12-25T02:22:10.297Z,15.13
2022-12-25T02:25:01.641Z,15.75
2022-12-25T02:28:13.167Z,16.45
2022-12-25T02:30:53.747Z,19.85
2022-12-25T02:33:54.902Z,14.20
2022-12-25T02:36:32.761Z,17.73
2022-12-25T02:39:23.628Z,17.88
2022-12-25T02:41:58.200Z,15.80
2022-12-25T02:44:44.515Z,18.08
2022-12-25T02:47:30.280Z,19.13
2022-12-25T02:50:17.657Z,14.65
2022-12-25T02:53:06.350Z,17.88
2022-12-25T02:55:59.110Z,16.70
2022-12-25T02:58:46.777Z,12.90
2022-12-25T03:01:39.582Z,15.50
2022-12-25T03:04:34.750Z,15.88
2022-12-25T03:07:11.964Z,21.83
2022-12-25T03:10:05.734Z,16.10
2022-12-25T03:12:49.323Z,12.23
2022-12-25T03:15:39.058Z,16.17
2022-12-25T03:18:13.849Z,16.23
2022-12-25T03:23:53.253Z,15.93
2022-12-25T03:26:39.242Z,14.65
2022-12-25T03:29:06.240Z,17.77
2022-12-25T03:32:03.175Z,11.32
2022-12-25T03:35:16.922Z,16.70
2022-12-25T03:38:41.993Z,14.13
2022-12-25T03:41:57.014Z,11.38
2022-12-25T03:45:08.691Z,14.07
2022-12-25T03:48:03.189Z,15.57
2022-12-25T03:51:15.854Z,15.63
2022-12-25T03:54:09.247Z,14.38
2022-12-25T03:56:57.216Z,16.63
2022-12-25T03:59:43.708Z,12.85
2022-12-25T04:02:29.602Z,11.90
2022-12-25T04:05:15.623Z,16.02
2022-12-25T04:08:01.466Z,18.25
2022-12-25T04:13:34.660Z,14.10
2022-12-25T04:16:20.489Z,17.60
2022-12-25T04:19:06.184Z,15.70
2022-12-25T04:24:37.113Z,15.38
2022-12-25T04:27:23.080Z,15.25
2022-12-25T04:30:08.993Z,10.43
2022-12-25T04:35:40.453Z,13.30
2022-12-25T04:38:07.423Z,12.20
2022-12-25T04:40:35.532Z,17.05
2022-12-25T04:43:02.566Z,14.10
2022-12-25T04:45:29.822Z,16.83
2022-12-25T04:48:00.638Z,18.30
2022-12-25T04:50:28.164Z,12.05
2022-12-25T04:52:55.070Z,15.68
2022-12-25T04:55:22.419Z,12.52
2022-12-25T04:57:49.429Z,10.80
2022-12-25T05:00:17.259Z,11.48
2022-12-25T05:02:44.344Z,13.32
2022-12-25T05:05:11.964Z,17.30
2022-12-25T05:07:38.906Z,14.88
2022-12-25T05:10:07.113Z,15.15
2022-12-25T05:12:33.994Z,17.05
2022-12-25T05:15:01.254Z,16.80
2022-12-25T05:17:28.188Z,12.98
2022-12-25T05:19:55.456Z,10.55
2022-12-25T05:22:22.299Z,13.52
2022-12-25T05:24:49.595Z,12.10
2022-12-25T05:27:17.000Z,15.98
2022-12-25T05:29:44.234Z,12.38
2022-12-25T05:32:11.526Z,15.80
2022-12-25T05:34:38.925Z,14.00
2022-12-25T05:37:06.579Z,20.70
2022-12-25T05:39:33.988Z,13.07
2022-12-25T05:42:01.164Z,13.30
2022-12-25T05:44:28.336Z,15.98
2022-12-25T05:46:55.337Z,14.75
2022-12-25T05:49:22.786Z,16.52
2022-12-25T05:51:49.770Z,14.60
2022-12-25T05:54:17.125Z,18.40
2022-12-25T05:56:44.095Z,14.23
2022-12-25T05:59:11.268Z,13.52
2022-12-25T06:01:38.303Z,15.65
2022-12-25T06:04:11.969Z,11.25
2022-12-25T06:06:39.551Z,10.07
2022-12-25T06:09:06.788Z,14.50
2022-12-25T06:11:33.709Z,17.42
2022-12-25T06:14:01.205Z,17.25
2022-12-25T06:16:30.550Z,14.65
2022-12-25T06:19:03.097Z,11.35
2022-12-25T06:21:30.248Z,15.10
2022-12-25T06:23:57.488Z,18.27
2022-12-25T06:26:24.528Z,18.63
2022-12-25T06:28:52.428Z,14.48
2022-12-25T06:31:23.188Z,16.20
2022-12-25T06:33:50.999Z,11.40
2022-12-25T06:36:25.221Z,16.77
2022-12-25T06:38:53.617Z,16.02
2022-12-25T06:41:26.491Z,15.13
2022-12-25T06:43:57.568Z,11.90
2022-12-25T06:46:28.945Z,17.33
2022-12-25T06:48:58.816Z,21.38
2022-12-25T06:51:29.498Z,13.00
2022-12-25T06:53:58.139Z,11.75
2022-12-25T06:56:28.639Z,11.65
2022-12-25T06:59:09.571Z,10.45
2022-12-25T07:01:44.497Z,12.65
2022-12-25T07:04:25.449Z,14.60
2022-12-25T07:06:53.175Z,14.88
2022-12-25T07:09:20.390Z,13.48
2022-12-25T07:11:47.278Z,13.15
2022-12-25T07:14:24.520Z,12.77
2022-12-25T07:16:52.256Z,12.30
2022-12-25T07:19:19.635Z,14.00
2022-12-25T07:21:47.306Z,18.58
2022-12-25T07:24:24.773Z,18.98
2022-12-25T07:26:52.521Z,13.52
2022-12-25T07:29:19.999Z,12.57
2022-12-25T07:31:47.961Z,19.90
2022-12-25T07:34:18.026Z,16.77
2022-12-25T07:36:45.363Z,14.27
2022-12-25T07:39:13.044Z,14.52
2022-12-25T07:41:40.407Z,13.43
2022-12-25T07:44:07.595Z,12.13
2022-12-25T07:46:34.795Z,13.55
2022-12-25T07:49:02.059Z,12.60
2022-12-25T07:51:30.330Z,11.27
2022-12-25T07:53:57.573Z,10.40
2022-12-25T07:56:24.505Z,14.90
2022-12-25T07:58:51.804Z,14.52
2022-12-25T08:01:23.473Z,15.75
2022-12-25T08:04:02.935Z,10.02
2022-12-25T08:06:34.357Z,10.05
2022-12-25T08:09:11.533Z,12.80
2022-12-25T08:11:39.987Z,9.90
2022-12-25T08:14:09.185Z,10.80
2022-12-25T08:16:39.793Z,16.08
2022-12-25T08:19:11.403Z,11.93
2022-12-25T08:21:39.023Z,12.57
2022-12-25T08:24:06.868Z,13.73
2022-12-25T08:26:33.782Z,16.90
2022-12-25T08:29:01.140Z,15.05
2022-12-25T08:31:30.343Z,14.32
2022-12-25T08:33:59.685Z,14.73
2022-12-25T08:36:27.338Z,15.32
2022-12-25T08:39:02.189Z,14.13
2022-12-25T08:41:30.682Z,13.77
2022-12-25T08:43:58.306Z,16.77
2022-12-25T08:46:25.277Z,16.58
2022-12-25T08:48:52.637Z,13.60
2022-12-25T08:51:23.548Z,13.93
2022-12-25T08:53:53.561Z,17.13
2022-12-25T08:56:20.922Z,8.77
2022-12-25T08:58:48.221Z,11.35
2022-12-25T09:01:15.329Z,12.48
2022-12-25T09:03:43.533Z,10.50
2022-12-25T09:06:14.482Z,11.40
2022-12-25T09:08:48.603Z,9.10
2022-12-25T09:11:17.837Z,8.50
2022-12-25T09:13:45.065Z,10.73
2022-12-25T09:16:18.886Z,13.05
2022-12-25T09:18:46.869Z,14.30
2022-12-25T09:21:16.879Z,16.60
2022-12-25T09:23:44.473Z,14.43
2022-12-25T09:26:15.479Z,16.27
2022-12-25T09:28:50.245Z,17.35
2022-12-25T09:31:18.747Z,12.13
2022-12-25T09:33:46.088Z,17.67
2022-12-25T09:36:13.117Z,19.38
2022-12-25T09:38:40.476Z,13.25
2022-12-25T09:41:31.694Z,16.15
2022-12-25T09:44:21.048Z,22.58
2022-12-25T09:46:55.947Z,15.40
2022-12-25T09:50:16.231Z,16.63
2022-12-25T09:52:55.087Z,13.15
2022-12-25T09:55:27.140Z,11.75
2022-12-25T09:57:58.067Z,15.80
2022-12-25T10:00:36.539Z,15.10
2022-12-25T10:03:32.961Z,17.98
2022-12-25T10:07:04.918Z,12.23
2022-12-25T10:09:55.545Z,14.18
2022-12-25T10:13:01.147Z,14.05
2022-12-25T10:15:45.819Z,13.80
2022-12-25T10:18:41.921Z,14.27
2022-12-25T10:21:14.430Z,13.80
2022-12-25T10:23:48.482Z,13.40
2022-12-25T10:26:22.362Z,10.68
2022-12-25T10:29:02.511Z,13.30
2022-12-25T10:31:36.107Z,11.32
2022-12-25T10:34:05.500Z,14.13
2022-12-25T10:36:33.587Z,12.88
2022-12-25T10:39:00.764Z,15.02
2022-12-25T10:41:31.637Z,13.02
2022-12-25T10:43:58.915Z,14.45
2022-12-25T10:46:29.210Z,15.85
2022-12-25T10:49:00.756Z,14.18
2022-12-25T10:51:34.911Z,10.52
2022-12-25T10:54:17.310Z,11.10
2022-12-25T10:56:58.307Z,14.18
2022-12-25T10:59:28.115Z,12.20
2022-12-25T11:02:24.790Z,20.67
2022-12-25T11:05:02.800Z,16.55
2022-12-25T11:07:31.116Z,16.05
2022-12-25T11:10:22.902Z,17.95
2022-12-25T11:12:50.078Z,18.30
2022-12-25T11:15:39.794Z,12.00
2022-12-25T11:18:29.478Z,14.90
2022-12-25T11:21:19.354Z,11.52
2022-12-25T11:23:51.200Z,19.80
2022-12-25T11:26:18.936Z,17.13
2022-12-25T11:28:48.999Z,19.33
2022-12-25T11:31:19.881Z,15.88
2022-12-25T11:34:14.371Z,19.77
2022-12-25T11:36:47.563Z,16.95
2022-12-25T11:39:34.014Z,19.25
2022-12-25T11:42:35.998Z,18.75
2022-12-25T11:45:16.262Z,17.50
2022-12-25T11:48:00.569Z,17.17
2022-12-25T11:50:43.859Z,17.83
2022-12-25T11:53:46.066Z,20.60
2022-12-25T11:56:26.752Z,18.90
2022-12-25T11:59:24.216Z,19.42
2022-12-25T12:02:12.384Z,16.92
2022-12-25T12:04:48.099Z,15.80
2022-12-25T12:07:20.985Z,22.30
2022-12-25T12:10:09.714Z,15.25
2022-12-25T12:13:32.212Z,18.17
2022-12-25T12:15:59.806Z,22.25
2022-12-25T12:18:26.769Z,21.25
2022-12-25T12:21:11.455Z,20.50
2022-12-25T12:24:19.136Z,21.60
2022-12-25T12:27:01.138Z,16.60
2022-12-25T12:29:55.688Z,21.75
2022-12-25T12:32:47.734Z,19.50
2022-12-25T12:35:30.576Z,26.25
2022-12-25T12:38:04.578Z,22.33
2022-12-25T12:40:39.306Z,23.23
2022-12-25T12:45:58.988Z,28.70
2022-12-25T12:48:30.092Z,28.50
2022-12-25T12:51:07.006Z,29.55
2022-12-25T12:53:35.352Z,28.33
2022-12-25T12:56:20.576Z,31.83
2022-12-25T12:58:50.976Z,27.02
2022-12-25T13:01:27.308Z,29.23
2022-12-25T13:04:37.719Z,27.65
2022-12-25T13:07:32.324Z,28.63
2022-12-25T13:10:13.123Z,30.00
2022-12-25T13:12:40.252Z,28.25
2022-12-25T13:15:15.225Z,27.17
2022-12-25T13:17:45.315Z,31.63
2022-12-25T13:20:35.412Z,34.70
2022-12-25T13:23:30.703Z,33.10
2022-12-25T13:26:05.093Z,30.80
2022-12-25T13:28:36.210Z,29.40
2022-12-25T13:31:03.379Z,33.10
2022-12-25T13:33:30.486Z,30.08
2022-12-25T13:35:57.985Z,32.88
2022-12-25T13:38:29.033Z,31.38
2022-12-25T13:41:17.587Z,31.00
2022-12-25T13:43:46.036Z,26.80
2022-12-25T13:46:15.804Z,30.40
2022-12-25T13:48:43.116Z,30.63
2022-12-25T13:51:16.839Z,30.20
2022-12-25T13:53:44.785Z,26.08
2022-12-25T13:56:16.855Z,28.83
2022-12-25T13:58:48.558Z,28.02
2022-12-25T14:01:16.850Z,26.63
2022-12-25T14:03:47.162Z,24.88
2022-12-25T14:06:30.288Z,26.50
2022-12-25T14:08:59.573Z,32.55
2022-12-25T14:11:30.985Z,28.98
2022-12-25T14:14:14.641Z,25.42
2022-12-25T14:16:44.757Z,24.13
2022-12-25T14:19:33.701Z,27.30
2022-12-25T14:22:19.705Z,28.50
2022-12-25T14:24:47.822Z,22.92
2022-12-25T14:27:21.994Z,25.23
2022-12-25T14:29:53.033Z,23.40
2022-12-25T14:32:25.328Z,23.38
2022-12-25T14:35:03.425Z,20.50
2022-12-25T14:37:34.124Z,22.83
2022-12-25T14:40:07.367Z,22.38
2022-12-25T14:42:38.111Z,25.40
2022-12-25T14:45:33.222Z,24.40
2022-12-25T14:48:25.293Z,23.17
2022-12-25T14:51:17.883Z,25.08
2022-12-25T14:53:54.881Z,20.23
2022-12-25T14:56:25.949Z,20.15
2022-12-25T14:58:57.332Z,19.55
2022-12-25T15:01:34.641Z,23.60
2022-12-25T15:04:17.640Z,19.00
2022-12-25T15:07:00.501Z,20.20
2022-12-25T15:09:30.145Z,20.83
2022-12-25T15:11:57.324Z,22.08
2022-12-25T15:14:26.284Z,23.05
2022-12-25T15:17:00.810Z,17.48
2022-12-25T15:19:38.709Z,25.80
2022-12-25T15:22:06.720Z,22.83
2022-12-25T15:24:34.024Z,23.13
2022-12-25T15:27:01.684Z,21.83
2022-12-25T15:32:23.552Z,18.65
2022-12-25T15:34:51.430Z,21.23
2022-12-25T15:37:19.268Z,19.90
2022-12-25T15:39:47.083Z,22.48
2022-12-25T15:42:17.740Z,27.55
2022-12-25T15:44:45.843Z,24.83
2022-12-25T15:47:16.206Z,26.67
2022-12-25T15:49:43.827Z,24.42
2022-12-25T15:52:15.847Z,27.55
2022-12-25T15:54:43.773Z,23.35
2022-12-25T15:57:22.249Z,25.35
2022-12-25T15:59:49.596Z,27.35
2022-12-25T16:02:20.514Z,20.90
2022-12-25T16:04:48.911Z,25.88
2022-12-25T16:07:20.657Z,24.25
2022-12-25T16:09:47.916Z,22.52
2022-12-25T16:12:15.073Z,22.35
2022-12-25T16:14:42.847Z,21.05
2022-12-25T16:17:15.596Z,22.52
2022-12-25T16:19:44.728Z,27.63
2022-12-25T16:22:23.787Z,23.48
2022-12-25T16:24:51.945Z,21.92
2022-12-25T16:27:18.895Z,18.05
2022-12-25T16:29:46.207Z,19.23
2022-12-25T16:32:15.441Z,19.38
2022-12-25T16:34:43.121Z,17.95
2022-12-25T16:37:10.090Z,22.42
2022-12-25T16:39:37.926Z,18.45
2022-12-25T16:42:04.912Z,17.08
2022-12-25T16:44:35.737Z,18.65
2022-12-25T16:47:02.725Z,15.93
2022-12-25T16:49:29.930Z,20.67
2022-12-25T16:51:56.899Z,19.08
2022-12-25T16:54:24.050Z,18.60
2022-12-25T16:56:51.857Z,20.67
2022-12-25T16:59:19.167Z,20.80
2022-12-25T17:01:46.233Z,20.25
2022-12-25T17:04:14.204Z,17.65
2022-12-25T17:06:41.210Z,31.30
2022-12-25T17:09:08.410Z,24.25
2022-12-25T17:11:35.348Z,15.63
2022-12-25T17:14:05.038Z,17.63
2022-12-25T17:16:36.341Z,17.17
2022-12-25T17:19:17.602Z,15.82
2022-12-25T17:21:44.585Z,17.13
2022-12-25T17:24:12.011Z,14.48
2022-12-25T17:26:41.489Z,14.32
2022-12-25T17:29:08.975Z,17.27
2022-12-25T17:31:38.074Z,15.07
2022-12-25T17:34:08.210Z,19.00
2022-12-25T17:36:36.080Z,14.40
2022-12-25T17:39:06.170Z,16.95
2022-12-25T17:41:33.594Z,17.77
2022-12-25T17:44:00.876Z,15.95
2022-12-25T17:46:30.815Z,15.43
2022-12-25T17:49:00.416Z,28.33
2022-12-25T17:51:30.290Z,17.38
2022-12-25T17:54:03.274Z,15.80
2022-12-25T17:56:31.883Z,13.55
2022-12-25T17:59:06.600Z,15.38
2022-12-25T18:01:37.656Z,14.95
2022-12-25T18:04:06.743Z,16.60
2022-12-25T18:06:36.494Z,11.52
2022-12-25T18:09:06.278Z,15.90
2022-12-25T18:11:36.733Z,15.63
2022-12-25T18:14:06.916Z,16.90
2022-12-25T18:16:37.913Z,15.35
2022-12-25T18:19:06.181Z,14.52
2022-12-25T18:21:33.256Z,15.05
2022-12-25T18:24:03.173Z,19.35
2022-12-25T18:26:30.205Z,15.10
2022-12-25T18:28:58.561Z,16.63
2022-12-25T18:31:30.246Z,15.50
2022-12-25T18:33:59.853Z,23.77
2022-12-25T18:36:28.978Z,18.15
2022-12-25T18:38:57.252Z,13.38
2022-12-25T18:41:25.066Z,13.93
2022-12-25T18:43:55.699Z,15.00
2022-12-25T18:46:26.072Z,22.50
2022-12-25T18:48:56.325Z,20.17
2022-12-25T18:51:23.625Z,18.95
2022-12-25T18:53:52.099Z,14.05
2022-12-25T18:56:18.996Z,14.98
2022-12-25T18:58:47.666Z,14.52
2022-12-25T19:01:18.794Z,13.93
2022-12-25T19:03:48.869Z,15.30
2022-12-25T19:06:26.172Z,16.50
2022-12-25T19:08:54.742Z,14.52
2022-12-25T19:11:23.429Z,14.13
2022-12-25T19:13:50.794Z,12.25
2022-12-25T19:16:17.830Z,14.95
2022-12-25T19:18:45.103Z,14.85
2022-12-25T19:21:12.345Z,14.35
2022-12-25T19:23:40.513Z,14.93
2022-12-25T19:26:10.164Z,12.30
2022-12-25T19:28:39.018Z,13.65
2022-12-25T19:31:08.273Z,17.45
2022-12-25T19:33:39.576Z,21.17
2022-12-25T19:36:11.507Z,11.52
2022-12-25T19:38:38.824Z,15.38
2022-12-25T19:41:16.599Z,13.98
2022-12-25T19:43:49.688Z,13.82
2022-12-25T19:46:26.735Z,16.08
2022-12-25T19:48:56.105Z,12.55
2022-12-25T19:51:33.205Z,13.55
2022-12-25T19:54:00.622Z,19.80
2022-12-25T19:56:29.074Z,17.92
2022-12-25T19:58:57.476Z,15.88
2022-12-25T20:01:27.417Z,15.07
2022-12-25T20:03:54.968Z,15.98
2022-12-25T20:06:26.908Z,9.98
2022-12-25T20:09:02.089Z,15.27
2022-12-25T20:13:59.205Z,13.30
2022-12-25T20:16:26.828Z,23.75
2022-12-25T20:18:54.436Z,12.85
2022-12-25T20:21:23.515Z,12.85
2022-12-25T20:23:53.030Z,12.52
2022-12-25T20:26:23.710Z,11.10
2022-12-25T20:28:52.027Z,13.63
2022-12-25T20:31:27.505Z,12.85
2022-12-25T20:33:56.596Z,14.63
2022-12-25T20:36:24.278Z,12.77
2022-12-25T20:38:52.047Z,12.38
2022-12-25T20:41:27.392Z,9.77
2022-12-25T20:43:55.818Z,13.40
2022-12-25T20:46:23.299Z,9.32
2022-12-25T20:48:51.952Z,10.80
2022-12-25T20:51:23.007Z,11.55
2022-12-25T20:53:50.536Z,14.52
2022-12-25T20:56:20.958Z,13.43
2022-12-25T20:58:48.139Z,6.93
2022-12-25T21:01:17.722Z,10.02
2022-12-25T21:03:45.596Z,11.52
2022-12-25T21:06:13.391Z,9.70
2022-12-25T21:08:41.165Z,12.52
2022-12-25T21:11:09.974Z,12.35
2022-12-25T21:13:40.945Z,7.85
2022-12-25T21:16:15.827Z,8.52
2022-12-25T21:18:43.188Z,12.80
2022-12-25T21:21:11.001Z,10.23
2022-12-25T21:23:40.230Z,11.90
2022-12-25T21:26:16.802Z,9.15
2022-12-25T21:28:44.049Z,8.85
2022-12-25T21:31:11.380Z,12.02
2022-12-25T21:33:54.890Z,11.07
2022-12-25T21:36:30.608Z,11.05
2022-12-25T21:39:05.390Z,9.40
2022-12-25T21:41:35.242Z,8.85
2022-12-25T21:44:02.826Z,11.18
2022-12-25T21:46:30.330Z,8.68
2022-12-25T21:48:59.195Z,8.38
2022-12-25T21:51:49.629Z,7.55
2022-12-25T21:54:20.615Z,11.23
2022-12-25T21:56:49.577Z,11.75
2022-12-25T21:59:21.715Z,9.63
2022-12-25T22:01:51.232Z,11.85
2022-12-25T22:04:22.393Z,10.85
2022-12-25T22:07:09.103Z,11.73
2022-12-25T22:09:36.735Z,9.85
2022-12-25T22:12:23.785Z,12.30
2022-12-25T22:14:56.904Z,8.07
2022-12-25T22:17:46.710Z,10.90
2022-12-25T22:20:25.695Z,13.10
2022-12-25T22:22:54.284Z,13.27
2022-12-25T22:25:22.518Z,12.38
2022-12-25T22:27:49.974Z,9.27
2022-12-25T22:30:26.177Z,13.93
2022-12-25T22:32:53.809Z,12.02
2022-12-25T22:35:21.545Z,10.27
2022-12-25T22:37:49.662Z,13.32
2022-12-25T22:40:19.835Z,12.23
2022-12-25T22:42:47.468Z,10.48
2022-12-25T22:45:15.253Z,11.43
2022-12-25T22:47:42.517Z,10.43
2022-12-25T22:50:15.295Z,12.45
2022-12-25T22:52:45.707Z,10.00
2022-12-25T22:55:18.698Z,9.02
2022-12-25T22:57:45.691Z,12.10
2022-12-25T23:00:14.126Z,8.98
2022-12-25T23:02:41.215Z,11.27
2022-12-25T23:05:08.807Z,8.88
2022-12-25T23:07:35.843Z,9.02
2022-12-25T23:10:04.928Z,10.27
2022-12-25T23:12:50.449Z,22.30
2022-12-25T23:15:17.838Z,22.73
2022-12-25T23:18:03.380Z,25.13
2022-12-25T23:20:51.199Z,26.80
2022-12-25T23:23:36.985Z,30.98
2022-12-25T23:26:10.583Z,27.42
2022-12-25T23:28:59.104Z,29.50
2022-12-25T23:31:32.544Z,24.52
2022-12-25T23:34:00.421Z,28.33
2022-12-25T23:36:27.866Z,27.45
2022-12-25T23:38:54.834Z,29.35
2022-12-25T23:41:22.567Z,25.52
2022-12-25T23:43:49.754Z,30.20
2022-12-25T23:46:17.076Z,30.45
2022-12-25T23:48:44.064Z,30.38
2022-12-25T23:51:11.279Z,28.30
2022-12-25T23:53:38.313Z,24.02
2022-12-25T23:56:05.919Z,29.42
2022-12-25T23:58:33.822Z,26.50
